Time;durP1;ratioP1;P1;durP2;ratioP2;P2;SDS_P1;SDS_P2;PMS_P1;PMS_P2;Temp;Humidity;BMP_temperature;BMP_pressure;BME280_temperature;BME280_humidity;BME280_pressure;Samples;Min_cycle;Max_cycle;Signal;HPM_P1;HPM_P2
2021/01/31 00:00:59;;;;;;;16.58;8.65;;;;;;;;;;4988576;28;20034;-48
2021/01/31 00:03:26;;;;;;;16.83;9.05;;;;;;;;;;4988248;28;20073;-54
2021/01/31 00:05:53;;;;;;;16.08;8.65;;;;;;;;;;4988562;28;20030;-52
2021/01/31 00:08:21;;;;;;;21.42;10.82;;;;;;;;;;4987278;28;20402;-51
2021/01/31 00:10:47;;;;;;;20.55;10.40;;;;;;;;;;4979293;28;20097;-52
2021/01/31 00:13:14;;;;;;;22.25;11.38;;;;;;;;;;4987473;28;20074;-53
2021/01/31 00:15:42;;;;;;;22.98;10.50;;;;;;;;;;4981881;28;20034;-50
2021/01/31 00:18:08;;;;;;;15.77;8.52;;;;;;;;;;4987985;28;20029;-51
2021/01/31 00:20:35;;;;;;;13.43;7.15;;;;;;;;;;4986987;28;20042;-50
2021/01/31 00:23:02;;;;;;;15.40;7.20;;;;;;;;;;4986624;28;20149;-50
2021/01/31 00:25:28;;;;;;;13.88;7.60;;;;;;;;;;4987058;28;20035;-51
2021/01/31 00:27:54;;;;;;;15.82;7.95;;;;;;;;;;4985993;28;20123;-51
2021/01/31 00:30:22;;;;;;;16.33;8.85;;;;;;;;;;4987350;28;20043;-52
2021/01/31 00:32:48;;;;;;;12.98;7.60;;;;;;;;;;4987017;28;20026;-52
2021/01/31 00:35:15;;;;;;;18.95;8.30;;;;;;;;;;4985341;28;20031;-48
2021/01/31 00:37:41;;;;;;;11.20;6.75;;;;;;;;;;4986696;28;20042;-49
2021/01/31 00:40:08;;;;;;;14.80;8.10;;;;;;;;;;4984762;28;20449;-49
2021/01/31 00:42:34;;;;;;;18.38;9.70;;;;;;;;;;4985845;28;20304;-53
2021/01/31 00:45:00;;;;;;;16.65;8.85;;;;;;;;;;4984965;28;20466;-50
2021/01/31 00:47:26;;;;;;;15.27;7.53;;;;;;;;;;4987277;28;20446;-53
2021/01/31 00:49:52;;;;;;;14.65;8.25;;;;;;;;;;4986742;28;20034;-48
2021/01/31 00:52:21;;;;;;;14.18;7.95;;;;;;;;;;4978595;28;20061;-51
2021/01/31 00:54:48;;;;;;;14.25;8.05;;;;;;;;;;4986553;28;20080;-53
2021/01/31 00:57:14;;;;;;;14.15;8.05;;;;;;;;;;4986340;28;20647;-48
2021/01/31 00:59:40;;;;;;;13.98;8.38;;;;;;;;;;4986982;28;20030;-50
2021/01/31 01:02:07;;;;;;;14.88;8.65;;;;;;;;;;4986721;28;20039;-50
2021/01/31 01:04:33;;;;;;;19.15;8.57;;;;;;;;;;4987218;28;20035;-49
2021/01/31 01:06:59;;;;;;;16.95;9.25;;;;;;;;;;4986480;28;20061;-51
2021/01/31 01:09:24;;;;;;;17.85;10.13;;;;;;;;;;4984342;28;20065;-49
2021/01/31 01:11:50;;;;;;;18.92;9.85;;;;;;;;;;4985632;28;20026;-50
2021/01/31 01:14:16;;;;;;;16.90;9.27;;;;;;;;;;4979851;28;20030;-52
2021/01/31 01:16:42;;;;;;;17.15;9.50;;;;;;;;;;4982333;28;20033;-53
2021/01/31 01:19:08;;;;;;;17.77;9.40;;;;;;;;;;4978741;28;20508;-50
2021/01/31 01:21:34;;;;;;;15.15;9.90;;;;;;;;;;4985142;28;20046;-48
2021/01/31 01:24:00;;;;;;;15.98;9.23;;;;;;;;;;4985992;28;20089;-50
2021/01/31 01:26:27;;;;;;;22.67;11.65;;;;;;;;;;4986243;28;20073;-53
2021/01/31 01:28:53;;;;;;;16.48;9.10;;;;;;;;;;4985815;28;20565;-50
2021/01/31 01:31:19;;;;;;;16.85;8.65;;;;;;;;;;4984229;28;20375;-48
2021/01/31 01:33:45;;;;;;;18.33;9.57;;;;;;;;;;4987145;28;20037;-48
2021/01/31 01:36:11;;;;;;;16.73;9.02;;;;;;;;;;4984610;28;20046;-48
2021/01/31 01:38:37;;;;;;;15.98;9.40;;;;;;;;;;4990248;28;20023;-49
2021/01/31 01:41:03;;;;;;;17.50;9.75;;;;;;;;;;4989586;28;20022;-48
2021/01/31 01:43:31;;;;;;;18.23;9.73;;;;;;;;;;4988187;28;20029;-51
2021/01/31 01:46:23;;;;;;;19.75;10.23;;;;;;;;;;4984035;28;20134;-55
2021/01/31 01:48:51;;;;;;;20.35;9.65;;;;;;;;;;4990420;28;20041;-51
2021/01/31 01:51:26;;;;;;;17.65;8.95;;;;;;;;;;4990401;28;20022;-50
2021/01/31 01:53:52;;;;;;;17.20;9.82;;;;;;;;;;4990715;28;20041;-49
2021/01/31 01:56:19;;;;;;;16.60;9.38;;;;;;;;;;4987428;28;20026;-54
2021/01/31 01:58:45;;;;;;;18.83;9.15;;;;;;;;;;4986599;28;20114;-53
2021/01/31 02:01:12;;;;;;;17.23;9.55;;;;;;;;;;4989474;28;20043;-49
2021/01/31 02:03:41;;;;;;;17.98;9.20;;;;;;;;;;4989994;28;20057;-51
2021/01/31 02:06:09;;;;;;;18.65;9.43;;;;;;;;;;4989518;28;20027;-50
2021/01/31 02:08:35;;;;;;;14.90;7.88;;;;;;;;;;4989717;28;20046;-51
2021/01/31 02:11:01;;;;;;;14.30;7.95;;;;;;;;;;4990006;28;20509;-49
2021/01/31 02:13:27;;;;;;;13.52;7.65;;;;;;;;;;4987365;28;20033;-53
2021/01/31 02:15:57;;;;;;;16.58;8.23;;;;;;;;;;4989283;28;20117;-49
2021/01/31 02:18:28;;;;;;;14.32;7.95;;;;;;;;;;4987788;28;20035;-51
2021/01/31 02:21:13;;;;;;;11.68;5.82;;;;;;;;;;4989186;28;20038;-51
2021/01/31 02:23:58;;;;;;;18.25;8.88;;;;;;;;;;4983238;28;20033;-48
2021/01/31 02:26:42;;;;;;;17.98;9.90;;;;;;;;;;4988420;28;20517;-50
2021/01/31 02:29:33;;;;;;;18.10;9.88;;;;;;;;;;4988455;28;20072;-48
2021/01/31 02:32:06;;;;;;;15.18;9.07;;;;;;;;;;4984618;28;20030;-49
2021/01/31 02:34:52;;;;;;;15.95;8.60;;;;;;;;;;4988888;28;20121;-48
2021/01/31 02:37:25;;;;;;;15.55;9.27;;;;;;;;;;4985238;28;20050;-53
2021/01/31 02:39:59;;;;;;;18.40;9.95;;;;;;;;;;4983108;28;20508;-51
2021/01/31 02:42:31;;;;;;;16.90;10.15;;;;;;;;;;4987219;28;20629;-49
2021/01/31 02:45:03;;;;;;;17.42;10.50;;;;;;;;;;4987098;28;20053;-51
2021/01/31 02:47:30;;;;;;;18.43;11.00;;;;;;;;;;4986556;28;20034;-51
2021/01/31 02:49:59;;;;;;;18.75;10.32;;;;;;;;;;4988246;28;20037;-52
2021/01/31 02:52:31;;;;;;;19.23;10.45;;;;;;;;;;4988706;28;20038;-54
2021/01/31 02:55:05;;;;;;;19.40;10.75;;;;;;;;;;4981850;28;20026;-48
2021/01/31 02:57:39;;;;;;;16.05;9.27;;;;;;;;;;4988924;28;20034;-49
2021/01/31 03:00:08;;;;;;;22.38;11.55;;;;;;;;;;4983724;28;20490;-49
2021/01/31 03:02:37;;;;;;;20.13;11.65;;;;;;;;;;4988128;28;20026;-48
2021/01/31 03:05:07;;;;;;;19.05;10.57;;;;;;;;;;4988570;28;20045;-50
2021/01/31 03:07:44;;;;;;;19.75;10.60;;;;;;;;;;4988828;28;20034;-48
2021/01/31 03:10:13;;;;;;;18.48;9.82;;;;;;;;;;4985346;28;20030;-53
2021/01/31 03:12:43;;;;;;;21.42;10.98;;;;;;;;;;4988290;28;20077;-50
2021/01/31 03:15:12;;;;;;;19.38;10.38;;;;;;;;;;4986431;28;20034;-53
2021/01/31 03:17:46;;;;;;;18.42;9.57;;;;;;;;;;4988732;28;20034;-53
2021/01/31 03:20:23;;;;;;;16.90;10.25;;;;;;;;;;4986894;28;20041;-48
2021/01/31 03:22:54;;;;;;;19.13;10.48;;;;;;;;;;4988352;28;20363;-52
2021/01/31 03:25:25;;;;;;;17.90;10.18;;;;;;;;;;4988411;28;20145;-50
2021/01/31 03:27:50;;;;;;;19.83;9.40;;;;;;;;;;4987624;28;20037;-48
2021/01/31 03:30:17;;;;;;;18.52;9.30;;;;;;;;;;4988345;28;20057;-50
2021/01/31 03:32:46;;;;;;;15.90;9.25;;;;;;;;;;4988158;28;20498;-51
2021/01/31 03:35:23;;;;;;;14.65;8.80;;;;;;;;;;4986797;28;20030;-53
2021/01/31 03:37:54;;;;;;;17.17;8.98;;;;;;;;;;4985524;28;20035;-52
2021/01/31 03:40:23;;;;;;;18.23;9.90;;;;;;;;;;4988126;28;20465;-51
2021/01/31 03:42:49;;;;;;;19.33;9.98;;;;;;;;;;4985480;28;20026;-55
2021/01/31 03:45:17;;;;;;;19.17;10.20;;;;;;;;;;4983834;28;20040;-52
2021/01/31 03:48:02;;;;;;;20.92;10.18;;;;;;;;;;4988311;28;20041;-50
2021/01/31 03:50:28;;;;;;;21.95;10.25;;;;;;;;;;4980742;28;20034;-53
2021/01/31 03:52:54;;;;;;;21.58;10.73;;;;;;;;;;4987764;28;20022;-50
2021/01/31 03:55:20;;;;;;;21.73;10.75;;;;;;;;;;4980074;28;20054;-50
2021/01/31 03:57:52;;;;;;;23.73;12.13;;;;;;;;;;4986803;28;20034;-51
2021/01/31 04:00:20;;;;;;;26.70;11.05;;;;;;;;;;4986611;28;20074;-52
2021/01/31 04:03:02;;;;;;;23.52;11.35;;;;;;;;;;4987094;28;20432;-52
2021/01/31 04:05:29;;;;;;;24.65;10.48;;;;;;;;;;4985231;28;20081;-48
2021/01/31 04:07:56;;;;;;;17.75;10.73;;;;;;;;;;4987711;28;20061;-51
2021/01/31 04:10:23;;;;;;;19.55;9.63;;;;;;;;;;4986890;28;20043;-49
2021/01/31 04:12:52;;;;;;;20.63;10.40;;;;;;;;;;4986863;28;20776;-52
2021/01/31 04:15:31;;;;;;;23.15;10.57;;;;;;;;;;4983235;28;20030;-49
2021/01/31 04:17:57;;;;;;;17.15;9.10;;;;;;;;;;4986575;28;20386;-52
2021/01/31 04:20:23;;;;;;;19.50;9.70;;;;;;;;;;4988012;28;20034;-48
2021/01/31 04:22:49;;;;;;;17.80;9.48;;;;;;;;;;4987372;28;20081;-51
2021/01/31 04:25:15;;;;;;;22.55;11.23;;;;;;;;;;4984413;28;20035;-51
2021/01/31 04:27:41;;;;;;;21.25;10.15;;;;;;;;;;4987026;28;20033;-51
2021/01/31 04:30:08;;;;;;;23.00;12.00;;;;;;;;;;4986349;28;20064;-50
2021/01/31 04:32:35;;;;;;;23.40;11.57;;;;;;;;;;4987449;28;20034;-52
2021/01/31 04:35:01;;;;;;;21.13;11.18;;;;;;;;;;4985779;28;20022;-49
2021/01/31 04:37:27;;;;;;;22.73;10.85;;;;;;;;;;4986913;28;20033;-54
2021/01/31 04:39:53;;;;;;;21.15;11.43;;;;;;;;;;4987438;28;20061;-49
2021/01/31 04:42:20;;;;;;;22.35;10.75;;;;;;;;;;4977928;28;20037;-53
2021/01/31 04:44:48;;;;;;;21.75;10.98;;;;;;;;;;4986067;28;20687;-52
2021/01/31 04:47:23;;;;;;;18.27;10.20;;;;;;;;;;4977080;28;20038;-51
2021/01/31 04:49:55;;;;;;;19.42;10.20;;;;;;;;;;4984527;28;20147;-48
2021/01/31 04:52:29;;;;;;;21.55;10.38;;;;;;;;;;4986536;28;20340;-52
2021/01/31 04:54:55;;;;;;;27.00;11.90;;;;;;;;;;4985680;28;20030;-52
2021/01/31 04:57:41;;;;;;;22.83;11.65;;;;;;;;;;4986525;28;20410;-53
2021/01/31 05:00:09;;;;;;;23.98;11.90;;;;;;;;;;4981287;28;20534;-51
2021/01/31 05:02:37;;;;;;;28.35;12.32;;;;;;;;;;4986853;28;20128;-51
2021/01/31 05:05:03;;;;;;;24.63;12.75;;;;;;;;;;4987056;28;20034;-50
2021/01/31 05:07:35;;;;;;;27.92;12.32;;;;;;;;;;4986309;28;20463;-50
2021/01/31 05:10:01;;;;;;;26.48;12.75;;;;;;;;;;4987583;28;20033;-48
2021/01/31 05:12:32;;;;;;;28.50;13.57;;;;;;;;;;4992736;28;20030;-49
2021/01/31 05:15:10;;;;;;;31.05;13.52;;;;;;;;;;4989808;28;20033;-48
2021/01/31 05:17:37;;;;;;;30.15;13.80;;;;;;;;;;4993181;28;20037;-49
2021/01/31 05:20:09;;;;;;;29.48;14.23;;;;;;;;;;4993106;28;20041;-49
2021/01/31 05:22:39;;;;;;;26.13;13.25;;;;;;;;;;4993039;28;20058;-50
2021/01/31 05:25:06;;;;;;;28.23;14.02;;;;;;;;;;4981958;28;20030;-49
2021/01/31 05:27:33;;;;;;;33.33;14.40;;;;;;;;;;4985173;28;20047;-48
2021/01/31 05:29:59;;;;;;;29.58;13.48;;;;;;;;;;4992357;28;20050;-51
2021/01/31 05:32:25;;;;;;;26.70;13.82;;;;;;;;;;4991407;28;20034;-50
2021/01/31 05:34:56;;;;;;;28.30;13.98;;;;;;;;;;4991054;28;20367;-48
2021/01/31 05:37:27;;;;;;;28.52;14.68;;;;;;;;;;4987291;28;20034;-49
2021/01/31 05:39:56;;;;;;;26.95;13.07;;;;;;;;;;4991135;28;20466;-49
2021/01/31 05:42:30;;;;;;;25.65;12.55;;;;;;;;;;4986715;28;20061;-49
2021/01/31 05:45:08;;;;;;;23.63;11.88;;;;;;;;;;4985500;28;20375;-52
2021/01/31 05:47:41;;;;;;;27.65;13.10;;;;;;;;;;4991316;28;20042;-55
2021/01/31 05:50:30;;;;;;;25.10;12.15;;;;;;;;;;4987903;28;20038;-51
2021/01/31 05:52:56;;;;;;;27.88;13.07;;;;;;;;;;4984104;28;20030;-48
2021/01/31 05:55:28;;;;;;;27.98;12.50;;;;;;;;;;4984657;28;20027;-53
2021/01/31 05:58:12;;;;;;;29.70;12.55;;;;;;;;;;4984010;28;20307;-50
2021/01/31 06:00:38;;;;;;;26.65;11.88;;;;;;;;;;4982962;28;20030;-49
2021/01/31 06:03:08;;;;;;;26.05;12.07;;;;;;;;;;4982286;28;20053;-48
2021/01/31 06:05:34;;;;;;;27.23;13.40;;;;;;;;;;4993261;28;20030;-47
2021/01/31 06:08:05;;;;;;;23.00;11.43;;;;;;;;;;4992209;28;20033;-48
2021/01/31 06:10:32;;;;;;;23.00;11.18;;;;;;;;;;4988730;28;20113;-53
2021/01/31 06:13:03;;;;;;;23.50;12.13;;;;;;;;;;4991123;28;20549;-50
2021/01/31 06:15:52;;;;;;;26.83;11.95;;;;;;;;;;4986683;28;20109;-49
2021/01/31 06:18:20;;;;;;;20.40;11.00;;;;;;;;;;4976939;28;20046;-50
2021/01/31 06:20:47;;;;;;;26.33;12.25;;;;;;;;;;4992496;28;20030;-53
2021/01/31 06:23:39;;;;;;;24.02;11.82;;;;;;;;;;4986047;28;20044;-50
2021/01/31 06:26:05;;;;;;;25.17;11.77;;;;;;;;;;4982218;28;20054;-52
2021/01/31 06:28:41;;;;;;;22.83;10.20;;;;;;;;;;4985373;28;20050;-49
2021/01/31 06:31:31;;;;;;;22.33;10.82;;;;;;;;;;4986113;28;20049;-49
2021/01/31 06:33:58;;;;;;;21.60;10.55;;;;;;;;;;4984389;28;20042;-52
2021/01/31 06:36:24;;;;;;;21.85;11.25;;;;;;;;;;4988408;28;20084;-50
2021/01/31 06:38:59;;;;;;;23.67;11.70;;;;;;;;;;4988580;28;20034;-52
2021/01/31 06:41:44;;;;;;;22.95;11.18;;;;;;;;;;4986855;28;21751;-53
2021/01/31 06:44:18;;;;;;;23.35;10.73;;;;;;;;;;4987442;28;20038;-52
2021/01/31 06:47:03;;;;;;;21.98;11.02;;;;;;;;;;4984119;28;20040;-52
2021/01/31 06:49:50;;;;;;;19.65;10.57;;;;;;;;;;4985133;28;20084;-49
2021/01/31 06:52:22;;;;;;;22.30;10.77;;;;;;;;;;4984794;28;20525;-54
2021/01/31 06:54:57;;;;;;;19.05;9.82;;;;;;;;;;4981430;28;20026;-54
2021/01/31 06:57:37;;;;;;;23.77;11.07;;;;;;;;;;4979294;28;20026;-49
2021/01/31 07:00:21;;;;;;;21.45;11.27;;;;;;;;;;4979493;28;20037;-48
2021/01/31 07:02:56;;;;;;;22.25;11.13;;;;;;;;;;4982099;28;20037;-52
2021/01/31 07:05:41;;;;;;;22.92;10.93;;;;;;;;;;4978108;28;20031;-53
2021/01/31 07:08:06;;;;;;;18.73;10.23;;;;;;;;;;4974344;28;20037;-52
2021/01/31 07:10:51;;;;;;;20.08;9.93;;;;;;;;;;4976566;28;20038;-53
2021/01/31 07:13:20;;;;;;;16.58;9.30;;;;;;;;;;4978869;28;20037;-50
2021/01/31 07:15:54;;;;;;;20.70;10.02;;;;;;;;;;4976720;28;20030;-52
2021/01/31 07:18:21;;;;;;;21.27;11.05;;;;;;;;;;4983868;28;20486;-54
2021/01/31 07:20:50;;;;;;;22.40;10.18;;;;;;;;;;4979121;28;20166;-49
2021/01/31 07:23:22;;;;;;;22.38;10.77;;;;;;;;;;4983050;28;20057;-53
2021/01/31 07:26:00;;;;;;;21.65;10.48;;;;;;;;;;4973437;28;20188;-49
2021/01/31 07:28:30;;;;;;;20.15;9.80;;;;;;;;;;4983359;28;20580;-52
2021/01/31 07:31:12;;;;;;;22.17;10.82;;;;;;;;;;4983910;28;20046;-52
2021/01/31 07:33:44;;;;;;;21.65;11.13;;;;;;;;;;4975549;28;20050;-48
2021/01/31 07:36:10;;;;;;;;;;;;;;;;;;4980430;28;20855;-49
2021/01/31 07:38:49;;;;;;;21.70;10.40;;;;;;;;;;4980238;28;20002;-52
2021/01/31 07:41:15;;;;;;;26.02;11.25;;;;;;;;;;4978902;28;20816;-48
2021/01/31 07:43:42;;;;;;;20.52;10.23;;;;;;;;;;4978353;28;20042;-51
2021/01/31 07:46:11;;;;;;;23.23;11.48;;;;;;;;;;4976266;28;20125;-50
2021/01/31 07:48:48;;;;;;;22.52;11.63;;;;;;;;;;4976586;28;20050;-49
2021/01/31 07:51:19;;;;;;;23.40;11.93;;;;;;;;;;4979217;28;20061;-47
2021/01/31 07:53:46;;;;;;;22.80;12.00;;;;;;;;;;4975684;28;20077;-51
2021/01/31 07:56:29;;;;;;;20.52;10.93;;;;;;;;;;4976327;28;20030;-50
2021/01/31 07:58:57;;;;;;;20.45;10.43;;;;;;;;;;4982711;28;20394;-52
2021/01/31 08:01:43;;;;;;;24.73;10.80;;;;;;;;;;4984456;28;20065;-52
2021/01/31 08:04:18;;;;;;;26.15;10.27;;;;;;;;;;4979895;28;20034;-52
2021/01/31 08:06:45;;;;;;;24.27;10.80;;;;;;;;;;4976107;28;20036;-50
2021/01/31 08:09:27;;;;;;;24.13;10.70;;;;;;;;;;4985241;28;20101;-48
2021/01/31 08:11:56;;;;;;;22.98;11.02;;;;;;;;;;4979514;28;20018;-51
2021/01/31 08:14:41;;;;;;;19.73;9.68;;;;;;;;;;4982722;28;20562;-55
2021/01/31 08:17:07;;;;;;;25.92;10.90;;;;;;;;;;4977534;28;20026;-54
2021/01/31 08:19:33;;;;;;;41.33;18.15;;;;;;;;;;4977389;28;20042;-49
2021/01/31 08:22:11;;;;;;;52.72;23.38;;;;;;;;;;4980015;28;20030;-51
2021/01/31 08:24:56;;;;;;;38.50;19.23;;;;;;;;;;4977244;28;20034;-51
2021/01/31 08:27:43;;;;;;;33.33;17.45;;;;;;;;;;4975455;28;20033;-52
2021/01/31 08:30:18;;;;;;;34.63;17.58;;;;;;;;;;4979121;28;20045;-55
2021/01/31 08:33:02;;;;;;;29.65;15.25;;;;;;;;;;4973304;28;20248;-53
2021/01/31 08:35:31;;;;;;;27.55;14.38;;;;;;;;;;4977124;28;20030;-53
2021/01/31 08:38:16;;;;;;;27.95;13.98;;;;;;;;;;4972035;28;20034;-53
2021/01/31 08:41:02;;;;;;;22.23;11.30;;;;;;;;;;4979755;28;20027;-53
2021/01/31 08:43:28;;;;;;;20.38;10.55;;;;;;;;;;4981888;28;20086;-49
2021/01/31 08:46:02;;;;;;;20.92;11.02;;;;;;;;;;4983180;28;20030;-50
2021/01/31 08:48:28;;;;;;;20.45;11.48;;;;;;;;;;4982223;28;20041;-53
2021/01/31 08:51:12;;;;;;;19.95;11.07;;;;;;;;;;4983110;28;20030;-51
2021/01/31 08:53:39;;;;;;;20.40;10.57;;;;;;;;;;4982486;28;20080;-51
2021/01/31 08:56:15;;;;;;;21.73;11.48;;;;;;;;;;4983305;28;20035;-52
2021/01/31 08:58:41;;;;;;;17.95;11.07;;;;;;;;;;4981508;28;20026;-51
2021/01/31 09:01:08;;;;;;;22.08;10.75;;;;;;;;;;4983471;28;20360;-52
2021/01/31 09:03:34;;;;;;;22.75;10.70;;;;;;;;;;4986691;28;20050;-48
2021/01/31 09:06:00;;;;;;;16.15;8.88;;;;;;;;;;4983369;28;20030;-51
2021/01/31 09:08:27;;;;;;;24.27;10.05;;;;;;;;;;4982864;28;20042;-49
2021/01/31 09:10:54;;;;;;;18.80;10.13;;;;;;;;;;4984841;28;20048;-48
2021/01/31 09:13:30;;;;;;;17.88;9.63;;;;;;;;;;4983511;28;20034;-48
2021/01/31 09:16:12;;;;;;;20.65;10.75;;;;;;;;;;4985879;28;20026;-51
2021/01/31 09:18:38;;;;;;;18.20;9.10;;;;;;;;;;4983845;28;20023;-49
2021/01/31 09:21:20;;;;;;;20.98;9.57;;;;;;;;;;4982067;28;20026;-50
2021/01/31 09:23:47;;;;;;;21.25;10.48;;;;;;;;;;4986079;28;20101;-50
2021/01/31 09:26:13;;;;;;;20.40;10.10;;;;;;;;;;4975781;28;20748;-50
2021/01/31 09:28:42;;;;;;;16.60;9.57;;;;;;;;;;4975141;28;20145;-48
2021/01/31 09:31:08;;;;;;;18.48;9.88;;;;;;;;;;4978548;28;20085;-50
2021/01/31 09:33:39;;;;;;;16.40;8.93;;;;;;;;;;4969680;28;20039;-51
2021/01/31 09:36:15;;;;;;;15.02;8.52;;;;;;;;;;4981597;28;20069;-55
2021/01/31 09:38:42;;;;;;;16.92;8.85;;;;;;;;;;4977308;28;20401;-53
2021/01/31 09:41:08;;;;;;;13.32;8.25;;;;;;;;;;4975785;28;20104;-54
2021/01/31 09:43:35;;;;;;;14.05;7.03;;;;;;;;;;4979502;28;20103;-52
2021/01/31 09:46:02;;;;;;;12.98;7.13;;;;;;;;;;4970355;28;20041;-52
2021/01/31 09:48:30;;;;;;;13.43;7.45;;;;;;;;;;4978192;28;20031;-50
2021/01/31 09:50:57;;;;;;;13.23;7.00;;;;;;;;;;4985043;28;20679;-49
2021/01/31 09:53:29;;;;;;;11.52;6.20;;;;;;;;;;4983363;28;20401;-48
2021/01/31 09:55:55;;;;;;;13.27;7.07;;;;;;;;;;4979097;28;20069;-50
2021/01/31 09:58:23;;;;;;;11.63;6.43;;;;;;;;;;4987767;28;20026;-55
2021/01/31 10:00:49;;;;;;;10.85;5.95;;;;;;;;;;4988920;28;20098;-51
2021/01/31 10:03:32;;;;;;;11.02;6.65;;;;;;;;;;4988503;28;20046;-50
2021/01/31 10:06:02;;;;;;;11.60;6.80;;;;;;;;;;4985078;28;20500;-48
2021/01/31 10:08:28;;;;;;;12.68;7.20;;;;;;;;;;4984788;28;20027;-50
2021/01/31 10:10:55;;;;;;;12.88;7.30;;;;;;;;;;4979515;28;20062;-50
2021/01/31 10:13:24;;;;;;;14.10;7.57;;;;;;;;;;4982443;28;20041;-51
2021/01/31 10:16:00;;;;;;;12.00;7.05;;;;;;;;;;4984523;28;20024;-50
2021/01/31 10:18:32;;;;;;;12.20;6.78;;;;;;;;;;4986661;28;20030;-52
2021/01/31 10:21:15;;;;;;;13.45;7.00;;;;;;;;;;4981742;28;20524;-50
2021/01/31 10:23:41;;;;;;;11.65;6.57;;;;;;;;;;4986932;28;20062;-48
2021/01/31 10:26:12;;;;;;;9.55;5.85;;;;;;;;;;4986597;28;20056;-50
2021/01/31 10:28:44;;;;;;;13.40;6.45;;;;;;;;;;4988143;28;20108;-51
2021/01/31 10:31:22;;;;;;;13.35;6.90;;;;;;;;;;4987235;28;20164;-54
2021/01/31 10:33:50;;;;;;;9.07;5.57;;;;;;;;;;4987618;28;20034;-51
2021/01/31 10:36:31;;;;;;;9.88;5.90;;;;;;;;;;4983505;28;20386;-52
2021/01/31 10:38:59;;;;;;;9.30;5.57;;;;;;;;;;4985230;28;20029;-55
2021/01/31 10:41:25;;;;;;;8.70;5.68;;;;;;;;;;4985493;28;20046;-54
2021/01/31 10:43:55;;;;;;;7.70;5.13;;;;;;;;;;4986999;28;20064;-55
2021/01/31 10:46:21;;;;;;;7.80;5.30;;;;;;;;;;4988276;28;20153;-52
2021/01/31 10:48:47;;;;;;;7.95;5.40;;;;;;;;;;4980757;28;20042;-53
2021/01/31 10:51:13;;;;;;;6.90;5.03;;;;;;;;;;4988172;28;20037;-55
2021/01/31 10:53:39;;;;;;;10.05;5.85;;;;;;;;;;4988579;28;20125;-55
2021/01/31 10:56:06;;;;;;;8.80;5.38;;;;;;;;;;4989852;28;20031;-52
2021/01/31 10:58:32;;;;;;;8.55;5.00;;;;;;;;;;4983261;28;20046;-54
2021/01/31 11:00:58;;;;;;;10.82;5.75;;;;;;;;;;4989113;28;20033;-52
2021/01/31 11:03:23;;;;;;;11.98;5.50;;;;;;;;;;4989237;28;20038;-53
2021/01/31 11:05:50;;;;;;;8.60;5.65;;;;;;;;;;4989721;28;20030;-49
2021/01/31 11:08:16;;;;;;;10.48;6.20;;;;;;;;;;4986487;28;20045;-53
2021/01/31 11:10:42;;;;;;;8.98;5.75;;;;;;;;;;4982235;28;20034;-51
2021/01/31 11:13:07;;;;;;;8.10;5.20;;;;;;;;;;4987358;28;20084;-51
2021/01/31 11:15:33;;;;;;;9.20;5.43;;;;;;;;;;4986789;28;20027;-54
2021/01/31 11:17:59;;;;;;;7.28;4.90;;;;;;;;;;4977933;28;20034;-52
2021/01/31 11:20:25;;;;;;;7.53;4.85;;;;;;;;;;4988310;28;20034;-52
2021/01/31 11:22:51;;;;;;;7.10;4.55;;;;;;;;;;4988231;28;20088;-55
2021/01/31 11:25:17;;;;;;;6.10;4.72;;;;;;;;;;4978109;28;20031;-54
2021/01/31 11:27:43;;;;;;;7.35;5.20;;;;;;;;;;4988934;28;20038;-56
2021/01/31 11:30:09;;;;;;;6.00;4.55;;;;;;;;;;4988580;28;20082;-54
2021/01/31 11:32:35;;;;;;;9.10;4.80;;;;;;;;;;4988397;28;20026;-53
2021/01/31 11:35:01;;;;;;;8.35;4.80;;;;;;;;;;4988306;28;20029;-51
2021/01/31 11:37:27;;;;;;;7.32;4.68;;;;;;;;;;4989161;28;20026;-52
2021/01/31 11:39:53;;;;;;;7.85;4.75;;;;;;;;;;4988528;28;20023;-51
2021/01/31 11:42:19;;;;;;;9.63;6.00;;;;;;;;;;4987867;28;20034;-54
2021/01/31 11:44:45;;;;;;;8.35;5.18;;;;;;;;;;4988330;28;20703;-53
2021/01/31 11:47:11;;;;;;;7.22;5.20;;;;;;;;;;4989141;28;20428;-49
2021/01/31 11:49:37;;;;;;;7.63;5.20;;;;;;;;;;4975055;28;20031;-52
2021/01/31 11:52:03;;;;;;;6.93;5.10;;;;;;;;;;4987367;28;20018;-54
2021/01/31 11:54:29;;;;;;;8.70;5.60;;;;;;;;;;4988084;28;20026;-56
2021/01/31 11:56:55;;;;;;;9.38;5.72;;;;;;;;;;4988712;28;20029;-54
2021/01/31 11:59:21;;;;;;;8.13;5.20;;;;;;;;;;4988978;28;20023;-57
2021/01/31 12:01:47;;;;;;;8.77;5.32;;;;;;;;;;4988810;28;20025;-55
2021/01/31 12:04:13;;;;;;;9.25;5.57;;;;;;;;;;4987385;28;20026;-56
2021/01/31 12:06:39;;;;;;;7.53;5.07;;;;;;;;;;4988665;28;20026;-57
2021/01/31 12:09:05;;;;;;;9.55;5.57;;;;;;;;;;4988076;28;20014;-54
2021/01/31 12:11:31;;;;;;;9.82;5.55;;;;;;;;;;4988441;28;20036;-53
2021/01/31 12:13:57;;;;;;;8.82;6.00;;;;;;;;;;4988079;28;20019;-52
2021/01/31 12:16:23;;;;;;;8.38;5.38;;;;;;;;;;4988396;28;20042;-51
2021/01/31 12:18:49;;;;;;;10.43;5.60;;;;;;;;;;4979840;28;20545;-52
2021/01/31 12:21:15;;;;;;;8.45;5.57;;;;;;;;;;4987312;28;20060;-54
2021/01/31 12:23:41;;;;;;;8.25;5.30;;;;;;;;;;4987665;28;20041;-55
2021/01/31 12:26:07;;;;;;;7.35;4.95;;;;;;;;;;4974886;28;20084;-52
2021/01/31 12:28:33;;;;;;;8.43;6.00;;;;;;;;;;4986855;28;20034;-51
2021/01/31 12:30:59;;;;;;;8.15;5.47;;;;;;;;;;4987548;28;20027;-54
2021/01/31 12:33:25;;;;;;;8.05;5.43;;;;;;;;;;4987135;28;20129;-48
2021/01/31 12:35:51;;;;;;;6.95;4.40;;;;;;;;;;4986784;28;20018;-51
2021/01/31 12:38:17;;;;;;;8.25;5.18;;;;;;;;;;4987914;28;20037;-53
2021/01/31 12:40:43;;;;;;;9.07;5.50;;;;;;;;;;4982666;28;20065;-53
2021/01/31 12:43:09;;;;;;;7.68;5.10;;;;;;;;;;4980070;28;20038;-49
2021/01/31 12:45:35;;;;;;;6.65;5.13;;;;;;;;;;4985869;28;20030;-55
2021/01/31 12:48:01;;;;;;;7.03;4.68;;;;;;;;;;4981962;28;20050;-52
2021/01/31 12:50:30;;;;;;;7.18;4.57;;;;;;;;;;4977658;28;20513;-52
2021/01/31 12:52:56;;;;;;;7.63;5.10;;;;;;;;;;4977737;28;20022;-54
2021/01/31 12:55:22;;;;;;;6.53;5.03;;;;;;;;;;4983571;28;20856;-52
2021/01/31 12:57:48;;;;;;;7.00;4.25;;;;;;;;;;4985954;28;20022;-54
2021/01/31 13:00:15;;;;;;;6.63;4.35;;;;;;;;;;4976437;28;20043;-53
2021/01/31 13:02:41;;;;;;;9.27;5.45;;;;;;;;;;4976967;28;20084;-56
2021/01/31 13:05:08;;;;;;;11.35;5.95;;;;;;;;;;4975654;28;20475;-53
2021/01/31 13:07:34;;;;;;;7.82;4.93;;;;;;;;;;4978017;28;20030;-53
2021/01/31 13:10:00;;;;;;;6.75;4.97;;;;;;;;;;4978592;28;20521;-51
2021/01/31 13:12:26;;;;;;;7.10;5.10;;;;;;;;;;4983085;28;20050;-51
2021/01/31 13:14:52;;;;;;;8.02;5.60;;;;;;;;;;4979209;28;20035;-52
2021/01/31 13:17:18;;;;;;;7.55;5.80;;;;;;;;;;4977116;28;20039;-56
2021/01/31 13:19:44;;;;;;;10.43;6.25;;;;;;;;;;4985261;28;20039;-52
2021/01/31 13:22:10;;;;;;;10.45;6.90;;;;;;;;;;4981390;28;20048;-51
2021/01/31 13:24:36;;;;;;;11.10;7.55;;;;;;;;;;4985799;28;20034;-52
2021/01/31 13:27:02;;;;;;;11.02;7.65;;;;;;;;;;4985913;28;20061;-52
2021/01/31 13:29:28;;;;;;;11.43;7.18;;;;;;;;;;4984002;28;20045;-51
2021/01/31 13:31:54;;;;;;;12.10;7.10;;;;;;;;;;4988415;28;20030;-53
2021/01/31 13:34:19;;;;;;;12.27;6.70;;;;;;;;;;4987735;28;20034;-53
2021/01/31 13:36:45;;;;;;;9.88;6.13;;;;;;;;;;4989798;28;20034;-51
2021/01/31 13:39:11;;;;;;;11.25;6.45;;;;;;;;;;4990425;28;20032;-52
2021/01/31 13:41:38;;;;;;;12.13;7.40;;;;;;;;;;4995751;28;20038;-54
2021/01/31 13:44:04;;;;;;;11.85;7.43;;;;;;;;;;4990065;28;20026;-51
2021/01/31 13:46:30;;;;;;;12.82;7.90;;;;;;;;;;4988159;28;20035;-54
2021/01/31 13:48:56;;;;;;;13.05;7.32;;;;;;;;;;4990454;28;20034;-55
2021/01/31 13:51:22;;;;;;;12.93;7.70;;;;;;;;;;4989886;28;20034;-52
2021/01/31 13:53:48;;;;;;;13.98;7.90;;;;;;;;;;4990811;28;20034;-54
2021/01/31 13:56:14;;;;;;;12.07;7.72;;;;;;;;;;4990239;28;20033;-56
2021/01/31 13:58:40;;;;;;;11.40;7.05;;;;;;;;;;4989962;28;20073;-55
2021/01/31 14:01:06;;;;;;;12.60;7.85;;;;;;;;;;4988179;28;20026;-52
2021/01/31 14:03:32;;;;;;;11.80;7.68;;;;;;;;;;4983701;28;20422;-49
2021/01/31 14:05:58;;;;;;;11.70;7.47;;;;;;;;;;4988819;28;20037;-50
2021/01/31 14:08:24;;;;;;;14.35;8.68;;;;;;;;;;4980760;28;20045;-54
2021/01/31 14:10:50;;;;;;;17.13;8.82;;;;;;;;;;4983020;28;20083;-53
2021/01/31 14:13:16;;;;;;;14.90;8.25;;;;;;;;;;4988933;28;20430;-51
2021/01/31 14:15:42;;;;;;;13.40;8.50;;;;;;;;;;4984867;28;20022;-51
2021/01/31 14:18:08;;;;;;;12.98;7.93;;;;;;;;;;4970629;28;20019;-52
2021/01/31 14:20:34;;;;;;;14.68;8.10;;;;;;;;;;4984448;28;20521;-49
2021/01/31 14:23:00;;;;;;;16.08;8.98;;;;;;;;;;4972623;28;20034;-53
2021/01/31 14:25:27;;;;;;;14.52;8.50;;;;;;;;;;4984470;28;20038;-53
2021/01/31 14:27:53;;;;;;;14.13;8.65;;;;;;;;;;4982443;28;20529;-52
2021/01/31 14:30:20;;;;;;;16.25;8.98;;;;;;;;;;4989172;28;20541;-54
2021/01/31 14:32:46;;;;;;;18.85;8.93;;;;;;;;;;4978844;28;20517;-53
2021/01/31 14:35:16;;;;;;;14.88;8.27;;;;;;;;;;4988059;28;20030;-52
2021/01/31 14:37:43;;;;;;;13.70;8.70;;;;;;;;;;4985108;28;20018;-55
2021/01/31 14:40:09;;;;;;;14.02;8.30;;;;;;;;;;4988085;28;20096;-55
2021/01/31 14:42:35;;;;;;;13.60;7.68;;;;;;;;;;4983903;28;20042;-55